createdAt,value
2022-07-25T00:00:25.974Z,6.30
2022-07-25T00:02:52.739Z,6.10
2022-07-25T00:05:21.530Z,6.38
2022-07-25T00:07:49.286Z,6.20
2022-07-25T00:10:16.233Z,6.38
2022-07-25T00:12:43.539Z,5.78
2022-07-25T00:15:10.860Z,6.20
2022-07-25T00:17:39.224Z,6.72
2022-07-25T00:20:07.718Z,6.35
2022-07-25T00:22:34.667Z,6.95
2022-07-25T00:25:01.402Z,6.78
2022-07-25T00:27:28.085Z,6.68
2022-07-25T00:29:54.940Z,6.85
2022-07-25T00:32:21.784Z,6.35
2022-07-25T00:34:48.665Z,6.40
2022-07-25T00:37:15.279Z,6.50
2022-07-25T00:39:41.954Z,6.65
2022-07-25T00:42:08.660Z,6.93
2022-07-25T00:44:35.565Z,7.03
2022-07-25T00:47:02.646Z,7.50
2022-07-25T00:49:29.503Z,7.85
2022-07-25T00:51:56.169Z,8.07
2022-07-25T00:54:23.461Z,7.22
2022-07-25T00:56:50.291Z,8.07
2022-07-25T00:59:17.865Z,7.75
2022-07-25T01:01:45.797Z,8.38
2022-07-25T01:04:12.865Z,7.50
2022-07-25T01:06:39.982Z,8.38
2022-07-25T01:09:07.234Z,8.90
2022-07-25T01:11:34.067Z,8.43
2022-07-25T01:14:01.091Z,8.45
2022-07-25T01:16:28.161Z,7.88
2022-07-25T01:18:54.859Z,7.72
2022-07-25T01:21:23.721Z,7.45
2022-07-25T01:23:50.873Z,7.32
2022-07-25T01:26:17.628Z,6.82
2022-07-25T01:28:44.265Z,6.97
2022-07-25T01:31:11.266Z,7.18
2022-07-25T01:33:38.358Z,6.75
2022-07-25T01:36:06.145Z,7.35
2022-07-25T01:38:33.105Z,7.60
2022-07-25T01:40:59.794Z,7.85
2022-07-25T01:43:26.839Z,7.88
2022-07-25T01:45:53.564Z,7.53
2022-07-25T01:48:20.669Z,7.28
2022-07-25T01:50:47.605Z,7.13
2022-07-25T01:53:15.713Z,7.40
2022-07-25T01:55:42.339Z,7.35
2022-07-25T01:58:09.855Z,7.30
2022-07-25T02:00:37.314Z,7.75
2022-07-25T02:03:22.754Z,7.85
2022-07-25T02:05:49.320Z,8.52
2022-07-25T02:08:16.383Z,8.02
2022-07-25T02:10:43.748Z,7.75
2022-07-25T02:13:10.767Z,7.95
2022-07-25T02:15:37.814Z,7.70
2022-07-25T02:18:04.793Z,7.63
2022-07-25T02:20:31.634Z,7.43
2022-07-25T02:22:58.684Z,7.70
2022-07-25T02:25:25.817Z,6.90
2022-07-25T02:27:52.388Z,7.20
2022-07-25T02:30:19.011Z,7.50
2022-07-25T02:32:46.113Z,7.82
2022-07-25T02:35:13.381Z,6.97
2022-07-25T02:37:41.825Z,7.28
2022-07-25T02:40:09.782Z,7.53
2022-07-25T02:42:36.345Z,7.25
2022-07-25T02:45:03.604Z,7.30
2022-07-25T02:47:30.635Z,7.22
2022-07-25T02:49:57.361Z,7.07
2022-07-25T02:52:24.231Z,7.22
2022-07-25T02:54:51.808Z,7.60
2022-07-25T02:57:18.567Z,7.70
2022-07-25T02:59:45.305Z,7.75
2022-07-25T03:02:12.014Z,8.30
2022-07-25T03:04:39.184Z,8.35
2022-07-25T03:07:05.752Z,8.13
2022-07-25T03:09:32.430Z,7.93
2022-07-25T03:11:59.206Z,7.85
2022-07-25T03:14:26.511Z,7.97
2022-07-25T03:16:53.686Z,7.38
2022-07-25T03:19:20.846Z,7.88
2022-07-25T03:21:47.400Z,7.85
2022-07-25T03:24:15.131Z,8.23
2022-07-25T03:26:42.564Z,8.23
2022-07-25T03:29:09.678Z,7.70
2022-07-25T03:31:36.379Z,7.97
2022-07-25T03:34:03.125Z,9.82
2022-07-25T03:36:30.612Z,9.43
2022-07-25T03:38:57.910Z,9.43
2022-07-25T03:41:24.790Z,9.98
2022-07-25T03:43:54.986Z,9.65
2022-07-25T03:46:21.799Z,10.15
2022-07-25T03:48:48.880Z,10.30
2022-07-25T03:51:15.527Z,9.57
2022-07-25T03:54:01.586Z,9.63
2022-07-25T03:56:49.828Z,10.23
2022-07-25T03:59:20.027Z,9.80
2022-07-25T04:01:48.806Z,10.02
2022-07-25T04:04:16.230Z,9.95
2022-07-25T04:06:42.844Z,8.95
2022-07-25T04:09:11.090Z,9.73
2022-07-25T04:11:38.707Z,9.82
2022-07-25T04:14:06.139Z,9.90
2022-07-25T04:16:33.312Z,9.02
2022-07-25T04:19:01.156Z,9.15
2022-07-25T04:21:28.643Z,8.98
2022-07-25T04:23:55.435Z,8.63
2022-07-25T04:26:22.818Z,8.85
2022-07-25T04:28:49.802Z,8.70
2022-07-25T04:31:16.751Z,9.73
2022-07-25T04:33:44.154Z,11.80
2022-07-25T04:36:11.060Z,12.02
2022-07-25T04:38:37.986Z,12.02
2022-07-25T04:41:05.189Z,10.63
2022-07-25T04:43:31.989Z,11.05
2022-07-25T04:45:59.790Z,11.55
2022-07-25T04:48:26.833Z,10.52
2022-07-25T04:50:53.867Z,11.60
2022-07-25T04:53:20.412Z,10.38
2022-07-25T04:55:46.959Z,11.23
2022-07-25T04:58:13.641Z,11.32
2022-07-25T05:00:40.549Z,11.57
2022-07-25T05:03:07.474Z,12.77
2022-07-25T05:05:34.066Z,11.65
2022-07-25T05:08:01.304Z,11.52
2022-07-25T05:10:29.013Z,10.77
2022-07-25T05:12:56.487Z,11.63
2022-07-25T05:15:23.524Z,11.25
2022-07-25T05:17:50.181Z,10.57
2022-07-25T05:20:16.811Z,11.32
2022-07-25T05:22:43.448Z,10.80
2022-07-25T05:25:11.172Z,10.93
2022-07-25T05:27:38.402Z,10.85
2022-07-25T05:30:06.481Z,10.68
2022-07-25T05:32:33.617Z,11.32
2022-07-25T05:35:00.553Z,10.82
2022-07-25T05:37:27.493Z,11.10
2022-07-25T05:39:54.193Z,10.63
2022-07-25T05:42:20.832Z,11.05
2022-07-25T05:44:47.660Z,10.43
2022-07-25T05:47:14.278Z,11.77
2022-07-25T05:49:40.909Z,11.10
2022-07-25T05:52:12.489Z,11.60
2022-07-25T05:54:40.173Z,11.05
2022-07-25T05:57:06.796Z,11.13
2022-07-25T05:59:34.171Z,10.55
2022-07-25T06:02:02.785Z,9.57
2022-07-25T06:04:30.401Z,10.68
2022-07-25T06:06:57.129Z,9.70
2022-07-25T06:09:24.282Z,9.85
2022-07-25T06:12:00.131Z,9.60
2022-07-25T06:14:29.910Z,9.38
2022-07-25T06:16:58.427Z,8.77
2022-07-25T06:19:25.410Z,9.40
2022-07-25T06:21:52.850Z,9.05
2022-07-25T06:24:19.760Z,8.85
2022-07-25T06:26:48.477Z,9.38
2022-07-25T06:29:15.763Z,9.20
2022-07-25T06:31:48.506Z,8.90
2022-07-25T06:34:19.085Z,8.48
2022-07-25T06:36:47.948Z,9.43
2022-07-25T06:39:24.381Z,8.75
2022-07-25T06:41:57.269Z,8.75
2022-07-25T06:44:25.399Z,8.73
2022-07-25T06:47:03.773Z,8.50
2022-07-25T06:49:32.165Z,8.55
2022-07-25T06:52:18.768Z,8.70
2022-07-25T06:55:04.485Z,8.55
2022-07-25T06:57:37.041Z,8.00
2022-07-25T07:00:11.708Z,8.95
2022-07-25T07:02:58.715Z,8.68
2022-07-25T07:05:35.869Z,8.93
2022-07-25T07:08:08.162Z,9.00
2022-07-25T07:10:37.938Z,9.00
2022-07-25T07:13:10.610Z,8.68
2022-07-25T07:15:40.439Z,9.43
2022-07-25T07:18:10.273Z,8.85
2022-07-25T07:20:37.499Z,8.48
2022-07-25T07:23:04.141Z,8.82
2022-07-25T07:25:41.416Z,8.40
2022-07-25T07:28:10.223Z,8.38
2022-07-25T07:31:05.726Z,8.25
2022-07-25T07:33:23.749Z,8.82
2022-07-25T07:35:50.406Z,8.63
2022-07-25T07:38:18.240Z,8.60
2022-07-25T07:40:45.178Z,8.15
2022-07-25T07:43:12.243Z,8.85
2022-07-25T07:45:39.235Z,8.50
2022-07-25T07:48:06.950Z,8.70
2022-07-25T07:50:35.069Z,8.50
2022-07-25T07:53:01.673Z,8.40
2022-07-25T07:55:44.729Z,8.43
2022-07-25T07:58:15.989Z,8.05
2022-07-25T08:00:44.338Z,8.02
2022-07-25T08:03:11.116Z,8.40
2022-07-25T08:05:43.848Z,8.02
2022-07-25T08:08:13.778Z,8.40
2022-07-25T08:10:46.397Z,8.07
2022-07-25T08:13:19.049Z,8.75
2022-07-25T08:15:49.373Z,7.80
2022-07-25T08:18:17.661Z,8.13
2022-07-25T08:20:47.890Z,7.90
2022-07-25T08:23:15.090Z,8.57
2022-07-25T08:25:42.540Z,7.82
2022-07-25T08:28:09.977Z,8.35
2022-07-25T08:30:37.737Z,8.02
2022-07-25T08:33:08.127Z,7.70
2022-07-25T08:35:34.900Z,7.88
2022-07-25T08:38:02.645Z,7.82
2022-07-25T08:40:31.318Z,7.93
2022-07-25T08:42:59.434Z,7.78
2022-07-25T08:45:29.179Z,7.55
2022-07-25T08:47:56.578Z,7.35
2022-07-25T08:50:29.022Z,7.05
2022-07-25T08:53:16.266Z,7.30
2022-07-25T08:55:47.020Z,7.65
2022-07-25T08:58:17.531Z,7.00
2022-07-25T09:00:44.458Z,6.85
2022-07-25T09:03:11.396Z,7.28
2022-07-25T09:05:38.863Z,7.45
2022-07-25T09:08:11.576Z,7.15
2022-07-25T09:10:39.454Z,6.95
2022-07-25T09:13:14.355Z,7.00
2022-07-25T09:15:42.987Z,6.80
2022-07-25T09:18:16.896Z,7.45
2022-07-25T09:20:49.688Z,6.88
2022-07-25T09:23:29.925Z,6.80
2022-07-25T09:26:14.182Z,6.65
2022-07-25T09:28:45.816Z,6.55
2022-07-25T09:31:13.726Z,6.53
2022-07-25T09:33:52.372Z,5.88
2022-07-25T09:36:22.309Z,5.97
2022-07-25T09:38:57.225Z,5.97
2022-07-25T09:41:37.527Z,5.95
2022-07-25T09:44:15.448Z,6.35
2022-07-25T09:46:44.039Z,6.10
2022-07-25T09:49:14.791Z,6.30
2022-07-25T09:51:44.995Z,5.65
2022-07-25T09:54:11.862Z,5.93
2022-07-25T09:56:38.768Z,6.28
2022-07-25T09:59:06.405Z,5.65
2022-07-25T10:01:38.639Z,6.22
2022-07-25T10:04:25.671Z,5.68
2022-07-25T10:07:10.354Z,6.10
2022-07-25T10:09:49.808Z,5.93
2022-07-25T10:12:23.742Z,5.70
2022-07-25T10:15:06.898Z,5.10
2022-07-25T10:17:35.386Z,5.05
2022-07-25T10:20:02.098Z,5.55
2022-07-25T10:22:56.597Z,5.75
2022-07-25T10:25:23.958Z,5.13
2022-07-25T10:28:00.196Z,5.25
2022-07-25T10:30:39.965Z,5.50
2022-07-25T10:33:40.956Z,5.30
2022-07-25T10:36:10.090Z,5.72
2022-07-25T10:38:42.716Z,5.60
2022-07-25T10:41:13.073Z,5.47
2022-07-25T10:43:44.624Z,5.45
2022-07-25T10:46:19.231Z,5.03
2022-07-25T10:48:57.725Z,5.07
2022-07-25T10:51:41.341Z,5.47
2022-07-25T10:54:16.344Z,5.50
2022-07-25T10:56:57.775Z,5.38
2022-07-25T10:59:36.467Z,5.43
2022-07-25T11:02:05.212Z,5.68
2022-07-25T11:04:32.688Z,5.50
2022-07-25T11:07:10.173Z,5.32
2022-07-25T11:09:37.146Z,4.75
2022-07-25T11:12:04.688Z,4.97
2022-07-25T11:14:40.746Z,4.70
2022-07-25T11:17:23.120Z,4.80
2022-07-25T11:20:01.750Z,4.50
2022-07-25T11:22:29.885Z,4.45
2022-07-25T11:24:57.987Z,5.03
2022-07-25T11:27:27.673Z,4.72
2022-07-25T11:30:08.640Z,4.80
2022-07-25T11:32:54.696Z,4.65
2022-07-25T11:35:30.669Z,4.53
2022-07-25T11:37:58.666Z,4.75
2022-07-25T11:43:11.719Z,4.40
2022-07-25T11:45:42.624Z,4.25
2022-07-25T11:48:21.065Z,4.75
2022-07-25T11:50:49.084Z,4.80
2022-07-25T11:53:24.837Z,4.43
2022-07-25T11:55:56.770Z,4.80
2022-07-25T11:58:39.201Z,4.50
2022-07-25T12:01:15.775Z,4.30
2022-07-25T12:03:48.243Z,4.72
2022-07-25T12:06:50.393Z,4.55
2022-07-25T12:09:23.809Z,4.40
2022-07-25T12:12:08.196Z,4.23
2022-07-25T12:14:48.527Z,4.60
2022-07-25T12:17:21.046Z,4.50
2022-07-25T12:19:51.731Z,4.30
2022-07-25T12:22:30.985Z,4.60
2022-07-25T12:25:16.443Z,4.63
2022-07-25T12:27:51.781Z,4.32
2022-07-25T12:30:21.927Z,4.60
2022-07-25T12:32:58.900Z,4.57
2022-07-25T12:35:31.985Z,4.88
2022-07-25T12:38:06.387Z,4.35
2022-07-25T12:43:37.592Z,4.30
2022-07-25T12:46:20.792Z,4.30
2022-07-25T12:48:58.423Z,4.70
2022-07-25T12:51:56.167Z,4.60
2022-07-25T12:54:37.374Z,4.65
2022-07-25T13:01:00.956Z,4.35
2022-07-25T13:03:54.252Z,4.32
2022-07-25T13:06:21.004Z,4.43
2022-07-25T13:08:47.665Z,4.20
2022-07-25T13:11:14.308Z,4.97
2022-07-25T13:13:40.940Z,3.95
2022-07-25T13:16:11.259Z,4.57
2022-07-25T13:18:37.895Z,4.68
2022-07-25T13:21:04.930Z,5.10
2022-07-25T13:23:31.569Z,5.72
2022-07-25T13:26:00.484Z,4.47
2022-07-25T13:28:27.261Z,4.57
2022-07-25T13:30:53.931Z,4.28
2022-07-25T13:33:21.019Z,4.90
2022-07-25T13:35:47.822Z,4.57
2022-07-25T13:38:14.494Z,5.60
2022-07-25T13:40:42.233Z,4.60
2022-07-25T13:43:09.930Z,4.57
2022-07-25T13:45:41.068Z,4.38
2022-07-25T13:50:58.856Z,4.72
2022-07-25T13:53:29.584Z,4.50
2022-07-25T13:55:59.406Z,4.40
2022-07-25T13:58:26.732Z,4.80
2022-07-25T14:00:53.566Z,4.35
2022-07-25T14:03:20.270Z,4.50
2022-07-25T14:05:47.341Z,4.38
2022-07-25T14:08:13.945Z,4.70
2022-07-25T14:10:40.562Z,4.60
2022-07-25T14:13:07.208Z,17.42
2022-07-25T14:15:33.808Z,7.03
2022-07-25T14:18:00.359Z,6.43
2022-07-25T14:20:27.331Z,6.85
2022-07-25T14:22:53.908Z,6.68
2022-07-25T14:25:20.501Z,6.60
2022-07-25T14:27:47.145Z,6.68
2022-07-25T14:30:14.016Z,7.68
2022-07-25T14:32:43.553Z,7.30
2022-07-25T14:35:11.646Z,7.35
2022-07-25T14:37:38.241Z,7.80
2022-07-25T14:40:05.926Z,7.50
2022-07-25T14:42:33.180Z,16.45
2022-07-25T14:45:00.245Z,7.53
2022-07-25T14:47:27.503Z,6.90
2022-07-25T14:49:54.336Z,11.73
2022-07-25T14:52:21.018Z,7.80
2022-07-25T14:54:47.576Z,7.57
2022-07-25T14:57:14.198Z,7.28
2022-07-25T14:59:40.810Z,7.07
2022-07-25T15:02:07.607Z,7.30
2022-07-25T15:04:34.256Z,6.75
2022-07-25T15:07:00.902Z,6.80
2022-07-25T15:09:28.383Z,7.68
2022-07-25T15:11:54.986Z,10.25
2022-07-25T15:14:21.686Z,8.15
2022-07-25T15:16:48.327Z,6.70
2022-07-25T15:19:16.943Z,7.13
2022-07-25T15:21:44.162Z,6.35
2022-07-25T15:24:10.780Z,6.90
2022-07-25T15:26:37.461Z,6.65
2022-07-25T15:29:07.755Z,7.20
2022-07-25T15:31:34.870Z,6.70
2022-07-25T15:34:01.562Z,6.50
2022-07-25T15:36:29.788Z,6.18
2022-07-25T15:38:56.623Z,6.68
2022-07-25T15:41:23.308Z,6.18
2022-07-25T15:43:50.021Z,6.40
2022-07-25T15:46:16.816Z,6.32
2022-07-25T15:48:44.014Z,6.18
2022-07-25T15:51:11.003Z,5.93
2022-07-25T15:53:37.610Z,5.60
2022-07-25T15:56:04.708Z,5.75
2022-07-25T15:58:31.710Z,6.00
2022-07-25T16:00:58.339Z,5.57
2022-07-25T16:03:25.476Z,5.70
2022-07-25T16:05:54.023Z,5.50
2022-07-25T16:08:20.727Z,5.88
2022-07-25T16:10:47.342Z,5.30
2022-07-25T16:13:14.086Z,5.63
2022-07-25T16:15:40.711Z,5.53
2022-07-25T16:18:07.446Z,5.40
2022-07-25T16:20:34.071Z,5.53
2022-07-25T16:23:01.733Z,5.20
2022-07-25T16:25:29.559Z,5.55
2022-07-25T16:27:56.838Z,6.03
2022-07-25T16:30:23.874Z,5.68
2022-07-25T16:32:50.534Z,5.30
2022-07-25T16:35:17.267Z,5.78
2022-07-25T16:37:44.080Z,5.50
2022-07-25T16:40:11.056Z,5.50
2022-07-25T16:42:37.899Z,5.32
2022-07-25T16:45:05.723Z,5.55
2022-07-25T16:47:32.343Z,5.47
2022-07-25T16:49:58.977Z,5.72
2022-07-25T16:52:25.624Z,5.50
2022-07-25T16:54:52.267Z,5.38
2022-07-25T16:57:18.919Z,5.68
2022-07-25T16:59:53.558Z,5.55
2022-07-25T17:02:24.819Z,5.13
2022-07-25T17:04:54.468Z,5.60
2022-07-25T17:07:21.101Z,5.03
2022-07-25T17:09:47.745Z,6.00
2022-07-25T17:12:14.507Z,5.45
2022-07-25T17:14:41.119Z,4.82
2022-07-25T17:17:07.926Z,5.32
2022-07-25T17:19:39.753Z,5.35
2022-07-25T17:22:07.157Z,5.50
2022-07-25T17:24:33.870Z,5.80
2022-07-25T17:27:01.378Z,5.60
2022-07-25T17:29:27.956Z,5.82
2022-07-25T17:31:54.598Z,5.80
2022-07-25T17:34:25.398Z,6.10
2022-07-25T17:36:51.955Z,5.70
2022-07-25T17:39:18.919Z,5.68
2022-07-25T17:41:45.569Z,6.53
2022-07-25T17:44:12.546Z,6.03
2022-07-25T17:46:39.399Z,5.93
2022-07-25T17:49:06.100Z,6.75
2022-07-25T17:51:32.809Z,6.28
2022-07-25T17:53:59.401Z,6.70
2022-07-25T17:56:26.155Z,6.35
2022-07-25T17:58:52.763Z,6.68
2022-07-25T18:01:19.503Z,6.53
2022-07-25T18:03:47.702Z,6.47
2022-07-25T18:06:14.760Z,5.75
2022-07-25T18:08:41.330Z,7.47
2022-07-25T18:11:07.950Z,7.50
2022-07-25T18:13:34.954Z,6.55
2022-07-25T18:16:01.755Z,6.38
2022-07-25T18:18:28.469Z,5.45
2022-07-25T18:20:55.142Z,4.53
2022-07-25T18:23:21.684Z,4.40
2022-07-25T18:25:48.287Z,3.42
2022-07-25T18:28:15.010Z,4.38
2022-07-25T18:30:41.753Z,4.47
2022-07-25T18:33:08.332Z,4.55
2022-07-25T18:35:34.984Z,5.07
2022-07-25T18:38:02.253Z,5.60
2022-07-25T18:40:28.967Z,5.88
2022-07-25T18:42:55.553Z,6.05
2022-07-25T18:45:23.462Z,5.38
2022-07-25T18:47:50.651Z,5.43
2022-07-25T18:50:19.968Z,5.75
2022-07-25T18:52:46.742Z,5.93
2022-07-25T18:55:13.327Z,5.35
2022-07-25T18:57:39.897Z,5.43
2022-07-25T19:00:09.531Z,5.45
2022-07-25T19:02:36.317Z,5.75
2022-07-25T19:05:03.010Z,5.75
2022-07-25T19:07:31.360Z,5.72
2022-07-25T19:09:58.090Z,5.32
2022-07-25T19:12:26.729Z,5.85
2022-07-25T19:14:54.392Z,6.38
2022-07-25T19:17:21.308Z,5.80
2022-07-25T19:19:48.047Z,5.90
2022-07-25T19:22:14.661Z,6.40
2022-07-25T19:24:41.255Z,5.82
2022-07-25T19:27:09.481Z,6.00
2022-07-25T19:29:37.337Z,5.90
2022-07-25T19:32:04.412Z,6.20
2022-07-25T19:34:30.976Z,5.88
2022-07-25T19:36:57.597Z,6.07
2022-07-25T19:39:24.922Z,6.65
2022-07-25T19:41:52.462Z,6.93
2022-07-25T19:44:19.563Z,6.35
2022-07-25T19:46:46.735Z,7.10
2022-07-25T19:49:13.515Z,7.18
2022-07-25T19:51:40.257Z,6.80
2022-07-25T19:54:09.127Z,7.40
2022-07-25T19:56:36.135Z,6.90
2022-07-25T19:59:02.986Z,7.10
2022-07-25T20:01:31.457Z,6.75
2022-07-25T20:03:58.215Z,7.03
2022-07-25T20:06:24.934Z,6.55
2022-07-25T20:08:51.621Z,7.43
2022-07-25T20:11:18.377Z,7.32
2022-07-25T20:13:45.053Z,6.65
2022-07-25T20:16:11.724Z,7.75
2022-07-25T20:18:38.488Z,7.70
2022-07-25T20:21:05.398Z,7.35
2022-07-25T20:23:32.181Z,5.88
2022-07-25T20:26:00.782Z,4.90
2022-07-25T20:28:27.396Z,4.80
2022-07-25T20:30:56.070Z,4.40
2022-07-25T20:33:27.097Z,4.80
2022-07-25T20:35:55.011Z,5.20
2022-07-25T20:38:28.404Z,5.13
2022-07-25T20:40:55.980Z,5.60
2022-07-25T20:43:22.661Z,5.50
2022-07-25T20:45:49.339Z,5.20
2022-07-25T20:48:16.168Z,4.40
2022-07-25T20:50:43.194Z,4.10
2022-07-25T20:53:09.940Z,4.50
2022-07-25T20:55:37.316Z,4.40
2022-07-25T20:58:04.769Z,4.18
2022-07-25T21:00:31.960Z,4.50
2022-07-25T21:02:58.986Z,4.45
2022-07-25T21:05:26.312Z,4.40
2022-07-25T21:07:54.121Z,4.47
2022-07-25T21:10:20.828Z,4.60
2022-07-25T21:12:47.672Z,4.70
2022-07-25T21:15:15.042Z,5.28
2022-07-25T21:17:41.926Z,4.70
2022-07-25T21:20:12.732Z,5.18
2022-07-25T21:22:39.655Z,5.18
2022-07-25T21:25:07.247Z,5.47
2022-07-25T21:27:34.160Z,5.30
2022-07-25T21:30:00.738Z,6.03
2022-07-25T21:32:27.451Z,5.50
2022-07-25T21:34:54.064Z,5.53
2022-07-25T21:37:20.751Z,5.85
2022-07-25T21:39:47.396Z,5.38
2022-07-25T21:42:14.492Z,5.65
2022-07-25T21:44:42.589Z,5.10
2022-07-25T21:47:10.324Z,5.22
2022-07-25T21:49:55.652Z,4.88
2022-07-25T21:52:30.249Z,4.63
2022-07-25T21:55:02.341Z,4.90
2022-07-25T21:57:29.107Z,4.88
2022-07-25T21:59:59.742Z,4.28
2022-07-25T22:02:26.661Z,4.15
2022-07-25T22:04:53.333Z,3.38
2022-07-25T22:07:20.036Z,3.40
2022-07-25T22:09:46.637Z,3.17
2022-07-25T22:12:14.808Z,2.78
2022-07-25T22:14:41.373Z,2.88
2022-07-25T22:17:12.687Z,3.42
2022-07-25T22:19:39.998Z,3.03
2022-07-25T22:22:07.207Z,2.70
2022-07-25T22:24:33.870Z,2.75
2022-07-25T22:27:00.485Z,2.50
2022-07-25T22:29:27.127Z,2.50
2022-07-25T22:31:53.822Z,2.42
2022-07-25T22:34:20.472Z,2.60
2022-07-25T22:36:47.172Z,2.75
2022-07-25T22:39:13.737Z,2.92
2022-07-25T22:41:40.290Z,2.80
2022-07-25T22:44:07.633Z,2.58
2022-07-25T22:46:34.774Z,2.50
2022-07-25T22:49:01.706Z,2.55
2022-07-25T22:51:29.206Z,2.40
2022-07-25T22:53:57.232Z,2.47
2022-07-25T22:56:24.293Z,2.72
2022-07-25T22:58:50.883Z,2.30
2022-07-25T23:01:18.364Z,2.40
2022-07-25T23:03:45.646Z,2.58
2022-07-25T23:06:12.615Z,2.40
2022-07-25T23:08:39.269Z,2.70
2022-07-25T23:11:06.355Z,2.60
2022-07-25T23:13:33.757Z,2.90
2022-07-25T23:16:00.668Z,2.50
2022-07-25T23:18:28.556Z,2.80
2022-07-25T23:20:55.179Z,2.75
2022-07-25T23:23:21.893Z,2.85
2022-07-25T23:25:48.635Z,3.00
2022-07-25T23:28:15.255Z,2.72
2022-07-25T23:30:42.043Z,3.03
2022-07-25T23:33:08.997Z,3.08
2022-07-25T23:35:35.742Z,3.00
2022-07-25T23:38:02.469Z,3.58
2022-07-25T23:40:29.521Z,2.92
2022-07-25T23:42:56.167Z,2.80
2022-07-25T23:45:24.268Z,2.92
2022-07-25T23:47:54.608Z,2.58
2022-07-25T23:50:22.156Z,2.55
2022-07-25T23:52:48.787Z,2.47
2022-07-25T23:55:15.345Z,2.50
2022-07-25T23:57:42.324Z,2.53
